sensor_id;sensor_type;location;lat;lon;timestamp;pressure;altitude;pressure_sealevel;temperature;humidity
72721;BME280;60835;50.974;10.322;2023-02-27T00:01:52;99306.63;;;0.03;100.00
72721;BME280;60835;50.974;10.322;2023-02-27T00:04:19;99308.75;;;0.13;100.00
72721;BME280;60835;50.974;10.322;2023-02-27T00:06:46;99309.09;;;0.24;100.00
72721;BME280;60835;50.974;10.322;2023-02-27T00:09:12;99318.94;;;0.18;100.00
72721;BME280;60835;50.974;10.322;2023-02-27T00:11:41;99325.81;;;0.19;100.00
72721;BME280;60835;50.974;10.322;2023-02-27T00:14:08;99320.09;;;0.31;100.00
72721;BME280;60835;50.974;10.322;2023-02-27T00:16:35;99320.41;;;0.05;100.00
72721;BME280;60835;50.974;10.322;2023-02-27T00:19:02;99321.06;;;0.10;100.00
72721;BME280;60835;50.974;10.322;2023-02-27T00:21:30;99326.38;;;0.07;100.00
72721;BME280;60835;50.974;10.322;2023-02-27T00:23:57;99351.72;;;0.22;100.00
72721;BME280;60835;50.974;10.322;2023-02-27T00:26:23;99340.16;;;0.09;100.00
72721;BME280;60835;50.974;10.322;2023-02-27T00:28:50;99341.44;;;0.00;100.00
72721;BME280;60835;50.974;10.322;2023-02-27T00:31:16;99342.84;;;0.07;100.00
72721;BME280;60835;50.974;10.322;2023-02-27T00:33:43;99342.84;;;0.07;100.00
72721;BME280;60835;50.974;10.322;2023-02-27T00:36:09;99336.41;;;-0.05;100.00
72721;BME280;60835;50.974;10.322;2023-02-27T00:38:36;99362.16;;;0.02;100.00
72721;BME280;60835;50.974;10.322;2023-02-27T00:41:03;99374.13;;;0.06;100.00
72721;BME280;60835;50.974;10.322;2023-02-27T00:43:29;99369.88;;;0.03;100.00
72721;BME280;60835;50.974;10.322;2023-02-27T00:45:56;99377.66;;;0.05;100.00
72721;BME280;60835;50.974;10.322;2023-02-27T00:48:22;99384.81;;;-0.01;100.00
72721;BME280;60835;50.974;10.322;2023-02-27T00:50:49;99375.13;;;-0.17;100.00
72721;BME280;60835;50.974;10.322;2023-02-27T00:53:17;99370.25;;;-0.25;100.00
72721;BME280;60835;50.974;10.322;2023-02-27T00:55:43;99373.97;;;-0.32;100.00
72721;BME280;60835;50.974;10.322;2023-02-27T00:58:10;99396.38;;;-0.08;100.00
72721;BME280;60835;50.974;10.322;2023-02-27T01:00:36;99389.81;;;-0.16;100.00
72721;BME280;60835;50.974;10.322;2023-02-27T01:03:03;99388.56;;;-0.28;100.00
72721;BME280;60835;50.974;10.322;2023-02-27T01:05:29;99395.84;;;-0.36;100.00
72721;BME280;60835;50.974;10.322;2023-02-27T01:07:56;99385.81;;;-0.45;100.00
72721;BME280;60835;50.974;10.322;2023-02-27T01:10:22;99389.31;;;-0.46;100.00
72721;BME280;60835;50.974;10.322;2023-02-27T01:12:49;99383.84;;;-0.60;100.00
72721;BME280;60835;50.974;10.322;2023-02-27T01:15:16;99371.81;;;-0.63;100.00
72721;BME280;60835;50.974;10.322;2023-02-27T01:17:43;99399.97;;;-0.52;100.00
72721;BME280;60835;50.974;10.322;2023-02-27T01:20:11;99393.75;;;-0.70;100.00
72721;BME280;60835;50.974;10.322;2023-02-27T01:22:37;99410.47;;;-0.77;100.00
72721;BME280;60835;50.974;10.322;2023-02-27T01:25:05;99425.25;;;-0.77;100.00
72721;BME280;60835;50.974;10.322;2023-02-27T01:27:31;99436.63;;;-0.80;100.00
72721;BME280;60835;50.974;10.322;2023-02-27T01:29:58;99436.09;;;-0.89;100.00
72721;BME280;60835;50.974;10.322;2023-02-27T01:32:24;99439.97;;;-0.99;100.00
72721;BME280;60835;50.974;10.322;2023-02-27T01:34:51;99445.28;;;-1.02;100.00
72721;BME280;60835;50.974;10.322;2023-02-27T01:37:18;99451.84;;;-1.15;100.00
72721;BME280;60835;50.974;10.322;2023-02-27T01:39:44;99455.00;;;-1.07;100.00
72721;BME280;60835;50.974;10.322;2023-02-27T01:42:22;99449.72;;;-1.06;100.00
72721;BME280;60835;50.974;10.322;2023-02-27T01:47:39;99456.59;;;-1.03;100.00
72721;BME280;60835;50.974;10.322;2023-02-27T01:50:08;99447.13;;;-1.06;100.00
72721;BME280;60835;50.974;10.322;2023-02-27T01:52:36;99454.81;;;-1.03;100.00
72721;BME280;60835;50.974;10.322;2023-02-27T01:55:05;99449.16;;;-0.91;100.00
72721;BME280;60835;50.974;10.322;2023-02-27T01:57:39;99450.00;;;-0.90;100.00
72721;BME280;60835;50.974;10.322;2023-02-27T02:00:07;99442.38;;;-0.95;100.00
72721;BME280;60835;50.974;10.322;2023-02-27T02:02:38;99448.53;;;-0.97;100.00
72721;BME280;60835;50.974;10.322;2023-02-27T02:05:08;99455.66;;;-1.02;100.00
72721;BME280;60835;50.974;10.322;2023-02-27T02:07:36;99459.28;;;-1.06;100.00
72721;BME280;60835;50.974;10.322;2023-02-27T02:10:05;99466.28;;;-1.08;100.00
72721;BME280;60835;50.974;10.322;2023-02-27T02:12:34;99463.66;;;-1.08;100.00
72721;BME280;60835;50.974;10.322;2023-02-27T02:15:02;99453.47;;;-1.13;100.00
72721;BME280;60835;50.974;10.322;2023-02-27T02:17:44;99466.41;;;-1.11;100.00
72721;BME280;60835;50.974;10.322;2023-02-27T02:20:26;99463.34;;;-1.23;100.00
72721;BME280;60835;50.974;10.322;2023-02-27T02:31:55;99455.31;;;-1.40;100.00
72721;BME280;60835;50.974;10.322;2023-02-27T02:34:46;99458.53;;;-1.56;100.00
72721;BME280;60835;50.974;10.322;2023-02-27T02:40:16;99449.06;;;-1.34;100.00
72721;BME280;60835;50.974;10.322;2023-02-27T02:42:55;99443.03;;;-1.35;100.00
72721;BME280;60835;50.974;10.322;2023-02-27T02:45:31;99441.56;;;-1.42;100.00
72721;BME280;60835;50.974;10.322;2023-02-27T02:48:25;99438.00;;;-1.39;100.00
72721;BME280;60835;50.974;10.322;2023-02-27T02:51:17;99430.59;;;-1.27;100.00
72721;BME280;60835;50.974;10.322;2023-02-27T02:53:55;99442.41;;;-1.41;100.00
72721;BME280;60835;50.974;10.322;2023-02-27T02:56:31;99427.81;;;-1.44;100.00
72721;BME280;60835;50.974;10.322;2023-02-27T02:59:13;99428.22;;;-1.56;100.00
72721;BME280;60835;50.974;10.322;2023-02-27T03:01:52;99434.16;;;-1.52;100.00
72721;BME280;60835;50.974;10.322;2023-02-27T03:04:31;99438.84;;;-1.62;100.00
72721;BME280;60835;50.974;10.322;2023-02-27T03:07:31;99436.94;;;-1.57;100.00
72721;BME280;60835;50.974;10.322;2023-02-27T03:12:32;99451.13;;;-1.67;100.00
72721;BME280;60835;50.974;10.322;2023-02-27T03:15:24;99453.56;;;-1.87;100.00
72721;BME280;60835;50.974;10.322;2023-02-27T03:20:27;99442.69;;;-1.98;100.00
72721;BME280;60835;50.974;10.322;2023-02-27T03:22:58;99448.22;;;-2.07;100.00
72721;BME280;60835;50.974;10.322;2023-02-27T03:25:28;99442.25;;;-2.09;100.00
72721;BME280;60835;50.974;10.322;2023-02-27T03:27:59;99429.63;;;-1.95;100.00
72721;BME280;60835;50.974;10.322;2023-02-27T03:30:33;99439.91;;;-1.92;100.00
72721;BME280;60835;50.974;10.322;2023-02-27T03:33:06;99440.44;;;-2.07;100.00
72721;BME280;60835;50.974;10.322;2023-02-27T03:35:46;99443.91;;;-2.08;100.00
72721;BME280;60835;50.974;10.322;2023-02-27T03:38:37;99441.38;;;-1.85;100.00
72721;BME280;60835;50.974;10.322;2023-02-27T03:44:09;99455.56;;;-1.95;100.00
72721;BME280;60835;50.974;10.322;2023-02-27T03:46:39;99455.38;;;-1.89;100.00
72721;BME280;60835;50.974;10.322;2023-02-27T03:49:06;99455.91;;;-2.04;100.00
72721;BME280;60835;50.974;10.322;2023-02-27T03:51:33;99461.59;;;-1.95;100.00
72721;BME280;60835;50.974;10.322;2023-02-27T03:54:05;99452.59;;;-1.85;100.00
72721;BME280;60835;50.974;10.322;2023-02-27T03:56:44;99458.66;;;-1.84;100.00
72721;BME280;60835;50.974;10.322;2023-02-27T03:59:13;99466.34;;;-1.83;100.00
72721;BME280;60835;50.974;10.322;2023-02-27T04:01:41;99470.94;;;-1.89;100.00
72721;BME280;60835;50.974;10.322;2023-02-27T04:04:15;99477.59;;;-1.82;100.00
72721;BME280;60835;50.974;10.322;2023-02-27T04:07:08;99484.38;;;-1.78;100.00
72721;BME280;60835;50.974;10.322;2023-02-27T04:09:56;99478.03;;;-1.94;100.00
72721;BME280;60835;50.974;10.322;2023-02-27T04:12:54;99476.31;;;-1.95;100.00
72721;BME280;60835;50.974;10.322;2023-02-27T04:15:37;99480.78;;;-1.99;100.00
72721;BME280;60835;50.974;10.322;2023-02-27T04:18:42;99471.03;;;-1.92;100.00
72721;BME280;60835;50.974;10.322;2023-02-27T04:21:42;99467.75;;;-1.97;100.00
72721;BME280;60835;50.974;10.322;2023-02-27T04:24:33;99478.31;;;-2.03;100.00
72721;BME280;60835;50.974;10.322;2023-02-27T04:27:23;99475.94;;;-2.09;100.00
72721;BME280;60835;50.974;10.322;2023-02-27T04:32:34;99483.22;;;-1.94;100.00
72721;BME280;60835;50.974;10.322;2023-02-27T04:35:15;99466.38;;;-2.07;100.00
72721;BME280;60835;50.974;10.322;2023-02-27T04:37:49;99483.59;;;-2.06;100.00
72721;BME280;60835;50.974;10.322;2023-02-27T04:40:33;99497.31;;;-2.29;100.00
72721;BME280;60835;50.974;10.322;2023-02-27T04:43:05;99486.00;;;-2.26;100.00
72721;BME280;60835;50.974;10.322;2023-02-27T04:45:33;99487.72;;;-2.25;100.00
72721;BME280;60835;50.974;10.322;2023-02-27T04:48:09;99488.41;;;-2.20;100.00
72721;BME280;60835;50.974;10.322;2023-02-27T04:50:44;99486.38;;;-1.86;100.00
72721;BME280;60835;50.974;10.322;2023-02-27T04:53:20;99485.13;;;-1.99;100.00
72721;BME280;60835;50.974;10.322;2023-02-27T04:55:52;99480.88;;;-1.77;100.00
72721;BME280;60835;50.974;10.322;2023-02-27T05:00:50;99484.38;;;-1.78;100.00
72721;BME280;60835;50.974;10.322;2023-02-27T05:03:24;99490.50;;;-2.05;100.00
72721;BME280;60835;50.974;10.322;2023-02-27T05:05:54;99488.41;;;-2.20;100.00
72721;BME280;60835;50.974;10.322;2023-02-27T05:08:32;99485.47;;;-2.10;100.00
72721;BME280;60835;50.974;10.322;2023-02-27T05:11:08;99476.63;;;-2.04;100.00
72721;BME280;60835;50.974;10.322;2023-02-27T05:13:41;99483.72;;;-2.09;100.00
72721;BME280;60835;50.974;10.322;2023-02-27T05:16:25;99486.66;;;-1.94;100.00
72721;BME280;60835;50.974;10.322;2023-02-27T05:18:59;99480.22;;;-1.59;100.00
72721;BME280;60835;50.974;10.322;2023-02-27T05:21:41;99478.44;;;-1.57;100.00
72721;BME280;60835;50.974;10.322;2023-02-27T05:24:19;99487.13;;;-1.58;100.00
72721;BME280;60835;50.974;10.322;2023-02-27T05:27:05;99487.78;;;-1.76;100.00
72721;BME280;60835;50.974;10.322;2023-02-27T05:29:49;99489.19;;;-1.92;100.00
72721;BME280;60835;50.974;10.322;2023-02-27T05:35:43;99488.72;;;-1.54;100.00
72721;BME280;60835;50.974;10.322;2023-02-27T05:38:19;99489.81;;;-1.61;100.00
72721;BME280;60835;50.974;10.322;2023-02-27T05:40:52;99490.75;;;-1.62;100.00
72721;BME280;60835;50.974;10.322;2023-02-27T05:43:28;99484.34;;;-1.53;100.00
72721;BME280;60835;50.974;10.322;2023-02-27T05:46:03;99487.56;;;-1.70;100.00
72721;BME280;60835;50.974;10.322;2023-02-27T05:48:43;99484.16;;;-1.72;100.00
72721;BME280;60835;50.974;10.322;2023-02-27T05:51:12;99485.56;;;-1.62;100.00
72721;BME280;60835;50.974;10.322;2023-02-27T05:53:44;99483.00;;;-1.63;100.00
72721;BME280;60835;50.974;10.322;2023-02-27T05:56:13;99486.72;;;-1.46;100.00
72721;BME280;60835;50.974;10.322;2023-02-27T05:58:55;99485.22;;;-1.53;100.00
72721;BME280;60835;50.974;10.322;2023-02-27T06:01:25;99491.63;;;-1.63;100.00
72721;BME280;60835;50.974;10.322;2023-02-27T06:03:51;99483.00;;;-1.63;100.00
72721;BME280;60835;50.974;10.322;2023-02-27T06:06:19;99482.06;;;-1.38;100.00
72721;BME280;60835;50.974;10.322;2023-02-27T06:08:47;99487.13;;;-1.33;100.00
72721;BME280;60835;50.974;10.322;2023-02-27T06:11:14;99492.03;;;-1.26;100.00
72721;BME280;60835;50.974;10.322;2023-02-27T06:13:40;99490.88;;;-1.18;100.00
72721;BME280;60835;50.974;10.322;2023-02-27T06:16:09;99494.72;;;-1.29;100.00
72721;BME280;60835;50.974;10.322;2023-02-27T06:18:36;99504.81;;;-1.69;100.00
72721;BME280;60835;50.974;10.322;2023-02-27T06:21:03;99500.19;;;-1.61;100.00
72721;BME280;60835;50.974;10.322;2023-02-27T06:23:30;99504.50;;;-1.60;100.00
72721;BME280;60835;50.974;10.322;2023-02-27T06:25:56;99503.06;;;-1.44;100.00
72721;BME280;60835;50.974;10.322;2023-02-27T06:28:23;99508.28;;;-1.20;100.00
72721;BME280;60835;50.974;10.322;2023-02-27T06:30:54;99507.34;;;-1.43;100.00
72721;BME280;60835;50.974;10.322;2023-02-27T06:33:23;99503.09;;;-1.20;100.00
72721;BME280;60835;50.974;10.322;2023-02-27T06:35:51;99496.75;;;-1.13;100.00
72721;BME280;60835;50.974;10.322;2023-02-27T06:38:18;99495.31;;;-1.20;100.00
72721;BME280;60835;50.974;10.322;2023-02-27T06:40:44;99498.34;;;-0.86;100.00
72721;BME280;60835;50.974;10.322;2023-02-27T06:43:11;99496.31;;;-0.78;100.00
72721;BME280;60835;50.974;10.322;2023-02-27T06:45:38;99500.28;;;-1.14;100.00
72721;BME280;60835;50.974;10.322;2023-02-27T06:48:05;99499.88;;;-1.04;100.00
72721;BME280;60835;50.974;10.322;2023-02-27T06:50:31;99504.34;;;-1.07;100.00
72721;BME280;60835;50.974;10.322;2023-02-27T06:52:58;99497.44;;;-0.85;100.00
72721;BME280;60835;50.974;10.322;2023-02-27T06:55:25;99488.28;;;-0.72;100.00
72721;BME280;60835;50.974;10.322;2023-02-27T06:57:52;99484.06;;;-0.75;100.00
72721;BME280;60835;50.974;10.322;2023-02-27T07:00:19;99487.34;;;-0.71;100.00
72721;BME280;60835;50.974;10.322;2023-02-27T07:02:45;99480.38;;;-0.69;100.00
72721;BME280;60835;50.974;10.322;2023-02-27T07:05:12;99495.72;;;-0.63;100.00
72721;BME280;60835;50.974;10.322;2023-02-27T07:07:38;99495.25;;;-0.51;100.00
72721;BME280;60835;50.974;10.322;2023-02-27T07:10:09;99491.72;;;-0.50;100.00
72721;BME280;60835;50.974;10.322;2023-02-27T07:12:38;99459.22;;;-0.38;100.00
72721;BME280;60835;50.974;10.322;2023-02-27T07:15:06;99481.41;;;-0.30;100.00
72721;BME280;60835;50.974;10.322;2023-02-27T07:17:32;99475.97;;;-0.45;100.00
72721;BME280;60835;50.974;10.322;2023-02-27T07:19:59;99482.94;;;-0.04;100.00
72721;BME280;60835;50.974;10.322;2023-02-27T07:22:26;99489.47;;;0.26;100.00
72721;BME280;60835;50.974;10.322;2023-02-27T07:24:54;99476.31;;;0.29;100.00
72721;BME280;60835;50.974;10.322;2023-02-27T07:27:21;99471.03;;;0.51;100.00
72721;BME280;60835;50.974;10.322;2023-02-27T07:29:47;99459.41;;;-0.01;100.00
72721;BME280;60835;50.974;10.322;2023-02-27T07:32:14;99454.00;;;0.24;100.00
72721;BME280;60835;50.974;10.322;2023-02-27T07:34:41;99449.44;;;0.09;100.00
72721;BME280;60835;50.974;10.322;2023-02-27T07:37:07;99451.00;;;0.33;100.00
72721;BME280;60835;50.974;10.322;2023-02-27T07:39:34;99444.13;;;0.32;100.00
72721;BME280;60835;50.974;10.322;2023-02-27T07:42:01;99448.34;;;0.73;100.00
72721;BME280;60835;50.974;10.322;2023-02-27T07:44:27;99445.53;;;-0.02;100.00
72721;BME280;60835;50.974;10.322;2023-02-27T07:46:54;99460.03;;;-0.16;100.00
72721;BME280;60835;50.974;10.322;2023-02-27T07:49:21;99450.81;;;0.17;100.00
72721;BME280;60835;50.974;10.322;2023-02-27T07:51:47;99460.59;;;0.71;100.00
72721;BME280;60835;50.974;10.322;2023-02-27T07:54:14;99452.94;;;-0.13;100.00
72721;BME280;60835;50.974;10.322;2023-02-27T07:56:41;99456.34;;;0.10;100.00
72721;BME280;60835;50.974;10.322;2023-02-27T07:59:07;99462.59;;;0.85;100.00
72721;BME280;60835;50.974;10.322;2023-02-27T08:01:34;99441.41;;;0.92;100.00
72721;BME280;60835;50.974;10.322;2023-02-27T08:04:00;99426.63;;;1.47;100.00
72721;BME280;60835;50.974;10.322;2023-02-27T08:06:27;99408.13;;;1.52;100.00
72721;BME280;60835;50.974;10.322;2023-02-27T08:08:55;99371.78;;;2.00;100.00
72721;BME280;60835;50.974;10.322;2023-02-27T08:11:22;99336.16;;;2.80;100.00
72721;BME280;60835;50.974;10.322;2023-02-27T08:13:48;99331.50;;;3.01;100.00
72721;BME280;60835;50.974;10.322;2023-02-27T08:16:30;99230.94;;;2.77;100.00
72721;BME280;60835;50.974;10.322;2023-02-27T08:19:00;99169.22;;;3.76;100.00
72721;BME280;60835;50.974;10.322;2023-02-27T08:21:27;99142.00;;;3.08;100.00
72721;BME280;60835;50.974;10.322;2023-02-27T08:23:54;99137.75;;;3.49;100.00
72721;BME280;60835;50.974;10.322;2023-02-27T08:26:21;99132.69;;;4.69;100.00
72721;BME280;60835;50.974;10.322;2023-02-27T08:28:48;99160.72;;;5.33;100.00
72721;BME280;60835;50.974;10.322;2023-02-27T08:31:14;99254.34;;;5.32;100.00
72721;BME280;60835;50.974;10.322;2023-02-27T08:33:41;99400.94;;;5.51;100.00
72721;BME280;60835;50.974;10.322;2023-02-27T08:36:08;99459.19;;;6.24;100.00
72721;BME280;60835;50.974;10.322;2023-02-27T08:38:35;99496.63;;;5.05;100.00
72721;BME280;60835;50.974;10.322;2023-02-27T08:41:02;99494.06;;;5.72;100.00
72721;BME280;60835;50.974;10.322;2023-02-27T08:43:29;99519.22;;;6.30;100.00
72721;BME280;60835;50.974;10.322;2023-02-27T08:45:55;99587.47;;;6.44;100.00
72721;BME280;60835;50.974;10.322;2023-02-27T08:48:21;99660.91;;;5.92;100.00
72721;BME280;60835;50.974;10.322;2023-02-27T08:50:50;99669.38;;;3.72;100.00
72721;BME280;60835;50.974;10.322;2023-02-27T08:53:18;99563.00;;;4.47;100.00
72721;BME280;60835;50.974;10.322;2023-02-27T08:55:48;99612.13;;;6.02;100.00
72721;BME280;60835;50.974;10.322;2023-02-27T08:58:16;99693.66;;;5.28;100.00
72721;BME280;60835;50.974;10.322;2023-02-27T09:00:44;99702.28;;;5.88;100.00
72721;BME280;60835;50.974;10.322;2023-02-27T09:03:10;99713.28;;;5.37;100.00
72721;BME280;60835;50.974;10.322;2023-02-27T09:05:37;99751.84;;;6.08;100.00
72721;BME280;60835;50.974;10.322;2023-02-27T09:08:04;99799.28;;;5.91;100.00
72721;BME280;60835;50.974;10.322;2023-02-27T09:10:32;99758.84;;;5.80;100.00
72721;BME280;60835;50.974;10.322;2023-02-27T09:12:59;99833.53;;;7.15;100.00
72721;BME280;60835;50.974;10.322;2023-02-27T09:15:26;99809.06;;;6.03;100.00
72721;BME280;60835;50.974;10.322;2023-02-27T09:17:53;99789.81;;;5.89;100.00
72721;BME280;60835;50.974;10.322;2023-02-27T09:20:21;99787.22;;;7.25;100.00
72721;BME280;60835;50.974;10.322;2023-02-27T09:22:48;99880.19;;;6.99;100.00
72721;BME280;60835;50.974;10.322;2023-02-27T09:25:16;99916.13;;;5.84;100.00
72721;BME280;60835;50.974;10.322;2023-02-27T09:27:43;99922.53;;;4.86;100.00
72721;BME280;60835;50.974;10.322;2023-02-27T09:30:10;99899.66;;;6.26;100.00
72721;BME280;60835;50.974;10.322;2023-02-27T09:32:37;99907.53;;;4.73;100.00
72721;BME280;60835;50.974;10.322;2023-02-27T09:35:03;99935.44;;;7.13;100.00
72721;BME280;60835;50.974;10.322;2023-02-27T09:37:30;99908.84;;;4.31;100.00
72721;BME280;60835;50.974;10.322;2023-02-27T09:39:56;99873.88;;;5.73;100.00
72721;BME280;60835;50.974;10.322;2023-02-27T09:42:25;99967.47;;;6.49;100.00
72721;BME280;60835;50.974;10.322;2023-02-27T09:45:02;99927.06;;;5.92;100.00
72721;BME280;60835;50.974;10.322;2023-02-27T09:47:37;99976.38;;;5.25;100.00
72721;BME280;60835;50.974;10.322;2023-02-27T09:50:35;99892.78;;;5.19;100.00
72721;BME280;60835;50.974;10.322;2023-02-27T09:53:05;99879.06;;;5.29;100.00
72721;BME280;60835;50.974;10.322;2023-02-27T09:55:38;99906.25;;;6.61;100.00
72721;BME280;60835;50.974;10.322;2023-02-27T10:00:46;99908.31;;;6.70;100.00
72721;BME280;60835;50.974;10.322;2023-02-27T10:03:43;99988.94;;;7.14;100.00
72721;BME280;60835;50.974;10.322;2023-02-27T10:06:24;99941.94;;;7.49;100.00
72721;BME280;60835;50.974;10.322;2023-02-27T10:17:01;99950.88;;;6.63;100.00
72721;BME280;60835;50.974;10.322;2023-02-27T10:19:34;100002.34;;;9.45;100.00
72721;BME280;60835;50.974;10.322;2023-02-27T10:22:04;100164.22;;;7.88;100.00
72721;BME280;60835;50.974;10.322;2023-02-27T10:24:39;100142.28;;;7.46;100.00
72721;BME280;60835;50.974;10.322;2023-02-27T10:27:13;100138.56;;;6.31;100.00
72721;BME280;60835;50.974;10.322;2023-02-27T10:29:41;100126.19;;;6.17;100.00
72721;BME280;60835;50.974;10.322;2023-02-27T10:32:14;100138.16;;;8.39;100.00
72721;BME280;60835;50.974;10.322;2023-02-27T10:34:44;100148.50;;;6.71;100.00
72721;BME280;60835;50.974;10.322;2023-02-27T10:37:14;100119.22;;;6.77;100.00
72721;BME280;60835;50.974;10.322;2023-02-27T10:39:47;100148.41;;;7.02;100.00
72721;BME280;60835;50.974;10.322;2023-02-27T10:42:16;100152.94;;;7.00;100.00
72721;BME280;60835;50.974;10.322;2023-02-27T10:44:43;100152.38;;;8.36;100.00
72721;BME280;60835;50.974;10.322;2023-02-27T10:47:14;100150.88;;;6.46;100.00
72721;BME280;60835;50.974;10.322;2023-02-27T10:49:42;100128.06;;;7.34;100.00
72721;BME280;60835;50.974;10.322;2023-02-27T10:52:11;100145.09;;;6.24;100.00
72721;BME280;60835;50.974;10.322;2023-02-27T10:54:40;100116.66;;;5.83;100.00
72721;BME280;60835;50.974;10.322;2023-02-27T10:57:39;100085.22;;;5.18;100.00
72721;BME280;60835;50.974;10.322;2023-02-27T11:00:22;100096.38;;;6.02;100.00
72721;BME280;60835;50.974;10.322;2023-02-27T11:02:51;100090.84;;;4.95;100.00
72721;BME280;60835;50.974;10.322;2023-02-27T11:05:27;100039.63;;;4.53;100.00
72721;BME280;60835;50.974;10.322;2023-02-27T11:07:56;100008.81;;;4.41;100.00
72721;BME280;60835;50.974;10.322;2023-02-27T11:10:35;99955.81;;;4.69;100.00
72721;BME280;60835;50.974;10.322;2023-02-27T11:13:04;99916.81;;;4.63;100.00
72721;BME280;60835;50.974;10.322;2023-02-27T11:15:34;99911.50;;;4.64;100.00
72721;BME280;60835;50.974;10.322;2023-02-27T11:18:25;99904.31;;;4.35;100.00
72721;BME280;60835;50.974;10.322;2023-02-27T11:20:53;99900.78;;;4.36;100.00
72721;BME280;60835;50.974;10.322;2023-02-27T11:23:22;99883.25;;;4.04;100.00
72721;BME280;60835;50.974;10.322;2023-02-27T11:25:49;99849.88;;;4.40;100.00
72721;BME280;60835;50.974;10.322;2023-02-27T11:28:25;99838.25;;;4.61;100.00
72721;BME280;60835;50.974;10.322;2023-02-27T11:31:05;99876.13;;;4.56;100.00
72721;BME280;60835;50.974;10.322;2023-02-27T11:33:37;99887.06;;;4.31;100.00
72721;BME280;60835;50.974;10.322;2023-02-27T11:36:05;99887.72;;;4.02;100.00
72721;BME280;60835;50.974;10.322;2023-02-27T11:38:31;99861.00;;;3.61;100.00
72721;BME280;60835;50.974;10.322;2023-02-27T11:41:03;99825.78;;;4.01;100.00
72721;BME280;60835;50.974;10.322;2023-02-27T11:43:46;99800.19;;;4.39;100.00
72721;BME280;60835;50.974;10.322;2023-02-27T11:46:20;99814.41;;;3.85;100.00
72721;BME280;60835;50.974;10.322;2023-02-27T11:52:15;99805.34;;;3.57;100.00
72721;BME280;60835;50.974;10.322;2023-02-27T11:54:53;99802.44;;;2.93;100.00
72721;BME280;60835;50.974;10.322;2023-02-27T11:57:29;99753.88;;;3.41;100.00
72721;BME280;60835;50.974;10.322;2023-02-27T12:05:33;99707.88;;;3.20;100.00
72721;BME280;60835;50.974;10.322;2023-02-27T12:08:39;99687.31;;;3.29;100.00
72721;BME280;60835;50.974;10.322;2023-02-27T12:14:04;99692.56;;;3.29;100.00
72721;BME280;60835;50.974;10.322;2023-02-27T12:16:43;99676.03;;;3.61;100.00
72721;BME280;60835;50.974;10.322;2023-02-27T12:19:18;99687.72;;;3.22;100.00
72721;BME280;60835;50.974;10.322;2023-02-27T12:21:57;99643.59;;;3.48;100.00
72721;BME280;60835;50.974;10.322;2023-02-27T12:24:24;99623.63;;;3.30;100.00
72721;BME280;60835;50.974;10.322;2023-02-27T12:27:20;99552.94;;;3.32;100.00
72721;BME280;60835;50.974;10.322;2023-02-27T12:30:01;99521.97;;;3.55;100.00
72721;BME280;60835;50.974;10.322;2023-02-27T12:32:42;99515.72;;;2.94;100.00
72721;BME280;60835;50.974;10.322;2023-02-27T12:37:52;99479.09;;;3.11;100.00
72721;BME280;60835;50.974;10.322;2023-02-27T12:40:20;99489.06;;;3.51;100.00
72721;BME280;60835;50.974;10.322;2023-02-27T12:45:46;99550.88;;;3.21;100.00
72721;BME280;60835;50.974;10.322;2023-02-27T12:48:20;99536.34;;;3.16;100.00
72721;BME280;60835;50.974;10.322;2023-02-27T12:51:09;99523.44;;;3.13;100.00
72721;BME280;60835;50.974;10.322;2023-02-27T12:56:16;99483.31;;;2.81;100.00
72721;BME280;60835;50.974;10.322;2023-02-27T13:03:57;99469.47;;;2.96;100.00
72721;BME280;60835;50.974;10.322;2023-02-27T13:11:53;99488.72;;;3.57;100.00
72721;BME280;60835;50.974;10.322;2023-02-27T13:14:29;99488.22;;;3.35;100.00
72721;BME280;60835;50.974;10.322;2023-02-27T13:17:18;99491.53;;;3.39;100.00
72721;BME280;60835;50.974;10.322;2023-02-27T13:25:22;99538.09;;;3.32;100.00
72721;BME280;60835;50.974;10.322;2023-02-27T13:27:59;99539.09;;;3.45;100.00
72721;BME280;60835;50.974;10.322;2023-02-27T13:30:42;99554.66;;;3.64;100.00
72721;BME280;60835;50.974;10.322;2023-02-27T13:33:20;99552.47;;;3.56;100.00
72721;BME280;60835;50.974;10.322;2023-02-27T13:35:56;99543.31;;;3.32;100.00
72721;BME280;60835;50.974;10.322;2023-02-27T13:38:48;99515.66;;;3.44;100.00
72721;BME280;60835;50.974;10.322;2023-02-27T13:43:58;99555.13;;;3.39;100.00
72721;BME280;60835;50.974;10.322;2023-02-27T13:46:29;99560.72;;;3.49;100.00
72721;BME280;60835;50.974;10.322;2023-02-27T13:51:53;99564.09;;;3.51;100.00
72721;BME280;60835;50.974;10.322;2023-02-27T13:54:24;99571.16;;;3.33;100.00
72721;BME280;60835;50.974;10.322;2023-02-27T14:01:59;99531.22;;;3.14;100.00
72721;BME280;60835;50.974;10.322;2023-02-27T14:04:28;99533.31;;;3.07;100.00
72721;BME280;60835;50.974;10.322;2023-02-27T14:06:58;99519.75;;;2.84;100.00
72721;BME280;60835;50.974;10.322;2023-02-27T14:09:33;99534.22;;;2.91;100.00
72721;BME280;60835;50.974;10.322;2023-02-27T14:12:04;99531.06;;;2.84;100.00
72721;BME280;60835;50.974;10.322;2023-02-27T14:14:41;99537.72;;;3.07;100.00
72721;BME280;60835;50.974;10.322;2023-02-27T14:17:17;99542.22;;;2.88;100.00
72721;BME280;60835;50.974;10.322;2023-02-27T14:19:59;99524.56;;;2.91;100.00
72721;BME280;60835;50.974;10.322;2023-02-27T14:22:31;99518.31;;;3.11;100.00
72721;BME280;60835;50.974;10.322;2023-02-27T14:25:01;99546.81;;;2.83;100.00
72721;BME280;60835;50.974;10.322;2023-02-27T14:30:35;99578.66;;;2.57;100.00
72721;BME280;60835;50.974;10.322;2023-02-27T14:33:22;99576.66;;;2.44;100.00
72721;BME280;60835;50.974;10.322;2023-02-27T14:36:08;99546.13;;;2.28;100.00
72721;BME280;60835;50.974;10.322;2023-02-27T14:38:39;99529.16;;;2.36;100.00
72721;BME280;60835;50.974;10.322;2023-02-27T14:43:59;99537.09;;;2.35;100.00
72721;BME280;60835;50.974;10.322;2023-02-27T14:46:34;99521.94;;;2.59;100.00